sim
Sign-in with your pilot id or email,
or register
Callsign
Passwort

Schedule Details

Flight Number: DLH414
Departure: Munich Airport (EDDM) at 14:55
Arrival: Washington Dulles International Airport (KIAD) at 00:45
Route: Lufthansa Passenger Schedule. Enter filed route here before submitting Pirep.

Weather Information
Getting current METAR information for EDDM 210650Z VRB01KT CAVOK 11/11 Q1017 BECMG 09005KT
Getting current METAR information for KIAD 210652Z 34004KT 10SM CLR 08/05 A3053 RMK AO2 SLP338 T00780050 $

Schedule Frequency

Route Map